sensor_id;sensor_type;location;lat;lon;timestamp;pressure;altitude;pressure_sealevel;temperature;humidity
71974;BME280;59840;52.122;5.404;2024-02-21T00:01:17;102286.38;;;9.28;100.00
71974;BME280;59840;52.122;5.404;2024-02-21T00:03:44;102288.41;;;9.26;100.00
71974;BME280;59840;52.122;5.404;2024-02-21T00:06:10;102276.25;;;9.25;100.00
71974;BME280;59840;52.122;5.404;2024-02-21T00:08:37;102273.00;;;9.23;100.00
71974;BME280;59840;52.122;5.404;2024-02-21T00:11:04;102259.22;;;9.21;100.00
71974;BME280;59840;52.122;5.404;2024-02-21T00:13:31;102258.59;;;9.19;100.00
71974;BME280;59840;52.122;5.404;2024-02-21T00:15:57;102260.63;;;9.17;100.00
71974;BME280;59840;52.122;5.404;2024-02-21T00:18:24;102265.28;;;9.15;100.00
71974;BME280;59840;52.122;5.404;2024-02-21T00:20:55;102253.13;;;9.14;100.00
71974;BME280;59840;52.122;5.404;2024-02-21T00:23:22;102255.97;;;9.13;100.00
71974;BME280;59840;52.122;5.404;2024-02-21T00:25:49;102258.59;;;9.13;100.00
71974;BME280;59840;52.122;5.404;2024-02-21T00:28:16;102252.31;;;9.14;100.00
71974;BME280;59840;52.122;5.404;2024-02-21T00:30:43;102259.19;;;9.15;100.00
71974;BME280;59840;52.122;5.404;2024-02-21T00:33:10;102257.38;;;9.15;100.00
71974;BME280;59840;52.122;5.404;2024-02-21T00:35:37;102251.72;;;9.18;100.00
71974;BME280;59840;52.122;5.404;2024-02-21T00:38:04;102253.53;;;9.18;100.00
71974;BME280;59840;52.122;5.404;2024-02-21T00:40:31;102243.00;;;9.18;100.00
71974;BME280;59840;52.122;5.404;2024-02-21T00:42:58;102246.25;;;9.20;100.00
71974;BME280;59840;52.122;5.404;2024-02-21T00:45:24;102246.44;;;9.18;100.00
71974;BME280;59840;52.122;5.404;2024-02-21T00:47:51;102236.94;;;9.17;100.00
71974;BME280;59840;52.122;5.404;2024-02-21T00:50:18;102242.19;;;9.17;100.00
71974;BME280;59840;52.122;5.404;2024-02-21T00:52:44;102244.81;;;9.17;100.00
71974;BME280;59840;52.122;5.404;2024-02-21T00:55:11;102243.19;;;9.16;100.00
71974;BME280;59840;52.122;5.404;2024-02-21T00:57:38;102245.84;;;9.16;100.00
71974;BME280;59840;52.122;5.404;2024-02-21T01:00:05;102260.00;;;9.15;100.00
71974;BME280;59840;52.122;5.404;2024-02-21T01:02:32;102265.09;;;9.17;100.00
71974;BME280;59840;52.122;5.404;2024-02-21T01:04:58;102265.09;;;9.17;100.00
71974;BME280;59840;52.122;5.404;2024-02-21T01:07:25;102274.59;;;9.18;100.00
71974;BME280;59840;52.122;5.404;2024-02-21T01:09:52;102270.16;;;9.18;100.00
71974;BME280;59840;52.122;5.404;2024-02-21T01:12:19;102270.97;;;9.19;100.00
71974;BME280;59840;52.122;5.404;2024-02-21T01:14:46;102262.88;;;9.20;100.00
71974;BME280;59840;52.122;5.404;2024-02-21T01:17:13;102257.59;;;9.20;100.00
71974;BME280;59840;52.122;5.404;2024-02-21T01:19:39;102254.97;;;9.20;100.00
71974;BME280;59840;52.122;5.404;2024-02-21T01:22:06;102250.50;;;9.21;100.00
71974;BME280;59840;52.122;5.404;2024-02-21T01:24:33;102255.56;;;9.22;100.00
71974;BME280;59840;52.122;5.404;2024-02-21T01:26:59;102252.13;;;9.22;100.00
71974;BME280;59840;52.122;5.404;2024-02-21T01:29:26;102252.94;;;9.22;100.00
71974;BME280;59840;52.122;5.404;2024-02-21T01:31:52;102245.03;;;9.22;100.00
71974;BME280;59840;52.122;5.404;2024-02-21T01:34:19;102243.41;;;9.21;100.00
71974;BME280;59840;52.122;5.404;2024-02-21T01:36:46;102233.50;;;9.23;100.00
71974;BME280;59840;52.122;5.404;2024-02-21T01:39:13;102234.50;;;9.22;100.00
71974;BME280;59840;52.122;5.404;2024-02-21T01:41:39;102230.06;;;9.23;100.00
71974;BME280;59840;52.122;5.404;2024-02-21T01:44:06;102229.25;;;9.22;100.00
71974;BME280;59840;52.122;5.404;2024-02-21T01:46:33;102221.94;;;9.24;100.00
71974;BME280;59840;52.122;5.404;2024-02-21T01:49:00;102214.25;;;9.23;100.00
71974;BME280;59840;52.122;5.404;2024-02-21T01:51:27;102213.25;;;9.24;100.00
71974;BME280;59840;52.122;5.404;2024-02-21T01:53:55;102204.72;;;9.22;100.00
71974;BME280;59840;52.122;5.404;2024-02-21T01:56:23;102198.03;;;9.19;100.00
71974;BME280;59840;52.122;5.404;2024-02-21T01:58:51;102204.94;;;9.20;100.00
71974;BME280;59840;52.122;5.404;2024-02-21T02:01:18;102197.03;;;9.20;100.00
71974;BME280;59840;52.122;5.404;2024-02-21T02:03:48;102200.66;;;9.19;100.00
71974;BME280;59840;52.122;5.404;2024-02-21T02:06:15;102204.94;;;9.20;100.00
71974;BME280;59840;52.122;5.404;2024-02-21T02:08:42;102200.47;;;9.21;100.00
71974;BME280;59840;52.122;5.404;2024-02-21T02:11:09;102197.03;;;9.20;100.00
71974;BME280;59840;52.122;5.404;2024-02-21T02:13:36;102191.75;;;9.20;100.00
71974;BME280;59840;52.122;5.404;2024-02-21T02:16:03;102181.22;;;9.20;100.00
71974;BME280;59840;52.122;5.404;2024-02-21T02:18:30;102183.84;;;9.20;100.00
71974;BME280;59840;52.122;5.404;2024-02-21T02:20:57;102175.16;;;9.20;100.00
71974;BME280;59840;52.122;5.404;2024-02-21T02:23:30;102171.50;;;9.21;100.00
71974;BME280;59840;52.122;5.404;2024-02-21T02:25:58;102161.78;;;9.21;100.00
71974;BME280;59840;52.122;5.404;2024-02-21T02:28:25;102161.78;;;9.21;100.00
71974;BME280;59840;52.122;5.404;2024-02-21T02:30:51;102168.88;;;9.21;100.00
71974;BME280;59840;52.122;5.404;2024-02-21T02:33:18;102168.06;;;9.20;100.00
71974;BME280;59840;52.122;5.404;2024-02-21T02:35:46;102168.06;;;9.20;100.00
71974;BME280;59840;52.122;5.404;2024-02-21T02:38:12;102158.34;;;9.21;100.00
71974;BME280;59840;52.122;5.404;2024-02-21T02:40:40;102161.16;;;9.19;100.00
71974;BME280;59840;52.122;5.404;2024-02-21T02:43:08;102162.78;;;9.20;100.00
71974;BME280;59840;52.122;5.404;2024-02-21T02:45:35;102157.53;;;9.20;100.00
71974;BME280;59840;52.122;5.404;2024-02-21T02:48:02;102154.88;;;9.20;100.00
71974;BME280;59840;52.122;5.404;2024-02-21T02:50:28;102154.88;;;9.20;100.00
71974;BME280;59840;52.122;5.404;2024-02-21T02:52:55;102151.25;;;9.21;100.00
71974;BME280;59840;52.122;5.404;2024-02-21T02:55:22;102156.72;;;9.20;100.00
71974;BME280;59840;52.122;5.404;2024-02-21T02:57:49;102149.00;;;9.18;100.00
71974;BME280;59840;52.122;5.404;2024-02-21T03:00:16;102148.19;;;9.18;100.00
71974;BME280;59840;52.122;5.404;2024-02-21T03:02:45;102142.13;;;9.17;100.00
71974;BME280;59840;52.122;5.404;2024-02-21T03:05:17;102132.19;;;9.19;100.00
71974;BME280;59840;52.122;5.404;2024-02-21T03:07:45;102124.50;;;9.18;100.00
71974;BME280;59840;52.122;5.404;2024-02-21T03:10:12;102130.78;;;9.17;100.00
71974;BME280;59840;52.122;5.404;2024-02-21T03:12:39;102121.47;;;9.14;100.00
71974;BME280;59840;52.122;5.404;2024-02-21T03:15:06;102121.47;;;9.14;100.00
71974;BME280;59840;52.122;5.404;2024-02-21T03:17:33;102119.63;;;9.15;100.00
71974;BME280;59840;52.122;5.404;2024-02-21T03:20:02;102126.72;;;9.14;100.00
71974;BME280;59840;52.122;5.404;2024-02-21T03:22:32;102114.56;;;9.13;100.00
71974;BME280;59840;52.122;5.404;2024-02-21T03:25:02;102106.06;;;9.11;100.00
71974;BME280;59840;52.122;5.404;2024-02-21T03:27:28;102106.88;;;9.12;100.00
71974;BME280;59840;52.122;5.404;2024-02-21T03:29:55;102102.41;;;9.12;100.00
71974;BME280;59840;52.122;5.404;2024-02-21T03:32:21;102106.06;;;9.11;100.00
71974;BME280;59840;52.122;5.404;2024-02-21T03:34:48;102097.34;;;9.11;100.00
71974;BME280;59840;52.122;5.404;2024-02-21T03:37:15;102089.47;;;9.11;100.00
71974;BME280;59840;52.122;5.404;2024-02-21T03:39:41;102087.03;;;9.09;100.00
71974;BME280;59840;52.122;5.404;2024-02-21T03:42:08;102081.75;;;9.09;100.00
71974;BME280;59840;52.122;5.404;2024-02-21T03:44:34;102068.00;;;9.07;100.00
71974;BME280;59840;52.122;5.404;2024-02-21T03:47:01;102075.69;;;9.08;100.00
71974;BME280;59840;52.122;5.404;2024-02-21T03:49:28;102071.22;;;9.09;100.00
71974;BME280;59840;52.122;5.404;2024-02-21T03:51:55;102073.88;;;9.09;100.00
71974;BME280;59840;52.122;5.404;2024-02-21T03:54:22;102074.88;;;9.08;100.00
71974;BME280;59840;52.122;5.404;2024-02-21T03:56:49;102073.06;;;9.08;100.00
71974;BME280;59840;52.122;5.404;2024-02-21T03:59:15;102071.22;;;9.09;100.00
71974;BME280;59840;52.122;5.404;2024-02-21T04:01:42;102071.22;;;9.09;100.00
71974;BME280;59840;52.122;5.404;2024-02-21T04:04:10;102068.78;;;9.07;100.00
71974;BME280;59840;52.122;5.404;2024-02-21T04:06:36;102073.25;;;9.07;100.00
71974;BME280;59840;52.122;5.404;2024-02-21T04:09:03;102068.38;;;9.04;100.00
71974;BME280;59840;52.122;5.404;2024-02-21T04:11:30;102072.03;;;9.03;100.00
71974;BME280;59840;52.122;5.404;2024-02-21T04:13:56;102077.31;;;9.03;100.00
71974;BME280;59840;52.122;5.404;2024-02-21T04:16:23;102069.41;;;9.03;100.00
71974;BME280;59840;52.122;5.404;2024-02-21T04:18:50;102056.44;;;9.01;100.00
71974;BME280;59840;52.122;5.404;2024-02-21T04:21:17;102053.00;;;9.01;100.00
71974;BME280;59840;52.122;5.404;2024-02-21T04:23:43;102053.00;;;9.01;100.00
71974;BME280;59840;52.122;5.404;2024-02-21T04:26:10;102048.53;;;9.01;100.00
71974;BME280;59840;52.122;5.404;2024-02-21T04:28:36;102042.47;;;9.01;100.00
71974;BME280;59840;52.122;5.404;2024-02-21T04:31:03;102047.75;;;9.01;100.00
71974;BME280;59840;52.122;5.404;2024-02-21T04:33:30;102049.34;;;9.02;100.00
71974;BME280;59840;52.122;5.404;2024-02-21T04:35:57;102036.44;;;9.00;100.00
71974;BME280;59840;52.122;5.404;2024-02-21T04:38:25;102040.06;;;8.99;100.00
71974;BME280;59840;52.122;5.404;2024-02-21T04:40:51;102040.06;;;8.99;100.00
71974;BME280;59840;52.122;5.404;2024-02-21T04:43:18;102047.75;;;9.01;100.00
71974;BME280;59840;52.122;5.404;2024-02-21T04:45:45;102041.69;;;9.00;100.00
71974;BME280;59840;52.122;5.404;2024-02-21T04:48:11;102026.09;;;8.99;100.00
71974;BME280;59840;52.122;5.404;2024-02-21T04:50:38;102015.56;;;8.99;100.00
71974;BME280;59840;52.122;5.404;2024-02-21T04:53:05;102020.84;;;8.99;100.00
71974;BME280;59840;52.122;5.404;2024-02-21T04:55:31;102017.19;;;9.00;100.00
71974;BME280;59840;52.122;5.404;2024-02-21T04:57:58;102021.66;;;8.99;100.00
71974;BME280;59840;52.122;5.404;2024-02-21T05:00:24;102021.03;;;8.97;100.00
71974;BME280;59840;52.122;5.404;2024-02-21T05:02:51;102012.94;;;8.99;100.00
71974;BME280;59840;52.122;5.404;2024-02-21T05:05:18;102020.84;;;8.99;100.00
71974;BME280;59840;52.122;5.404;2024-02-21T05:07:44;102011.31;;;8.98;100.00
71974;BME280;59840;52.122;5.404;2024-02-21T05:10:11;102019.00;;;8.99;100.00
71974;BME280;59840;52.122;5.404;2024-02-21T05:12:38;102017.41;;;8.98;100.00
71974;BME280;59840;52.122;5.404;2024-02-21T05:15:05;102017.19;;;9.00;100.00
71974;BME280;59840;52.122;5.404;2024-02-21T05:17:32;102011.13;;;8.99;100.00
71974;BME280;59840;52.122;5.404;2024-02-21T05:19:59;101999.78;;;8.99;100.00
71974;BME280;59840;52.122;5.404;2024-02-21T05:22:26;101997.13;;;8.99;100.00
71974;BME280;59840;52.122;5.404;2024-02-21T05:24:52;101995.53;;;8.98;100.00
71974;BME280;59840;52.122;5.404;2024-02-21T05:27:19;101993.69;;;8.98;100.00
71974;BME280;59840;52.122;5.404;2024-02-21T05:29:45;101988.44;;;8.98;100.00
71974;BME280;59840;52.122;5.404;2024-02-21T05:32:12;101983.97;;;8.99;100.00
71974;BME280;59840;52.122;5.404;2024-02-21T05:34:39;101979.72;;;8.98;100.00
71974;BME280;59840;52.122;5.404;2024-02-21T05:37:06;101979.72;;;8.98;100.00
71974;BME280;59840;52.122;5.404;2024-02-21T05:39:33;101961.50;;;8.96;100.00
71974;BME280;59840;52.122;5.404;2024-02-21T05:41:59;101954.63;;;8.95;100.00
71974;BME280;59840;52.122;5.404;2024-02-21T05:44:26;101969.59;;;8.95;100.00
71974;BME280;59840;52.122;5.404;2024-02-21T05:46:53;101958.28;;;8.94;100.00
71974;BME280;59840;52.122;5.404;2024-02-21T05:49:20;101945.09;;;8.94;100.00
71974;BME280;59840;52.122;5.404;2024-02-21T05:51:46;101944.50;;;8.92;100.00
71974;BME280;59840;52.122;5.404;2024-02-21T05:54:13;101942.69;;;8.93;100.00
71974;BME280;59840;52.122;5.404;2024-02-21T05:56:44;101933.97;;;8.92;100.00
71974;BME280;59840;52.122;5.404;2024-02-21T05:59:10;101931.34;;;8.92;100.00
71974;BME280;59840;52.122;5.404;2024-02-21T06:01:37;101938.22;;;8.93;100.00
71974;BME280;59840;52.122;5.404;2024-02-21T06:04:04;101933.78;;;8.94;100.00
71974;BME280;59840;52.122;5.404;2024-02-21T06:06:31;101932.16;;;8.93;100.00
71974;BME280;59840;52.122;5.404;2024-02-21T06:08:57;101934.78;;;8.93;100.00
71974;BME280;59840;52.122;5.404;2024-02-21T06:11:25;101934.56;;;8.94;100.00
71974;BME280;59840;52.122;5.404;2024-02-21T06:13:59;101927.69;;;8.93;100.00
71974;BME280;59840;52.122;5.404;2024-02-21T06:16:26;101919.00;;;8.93;100.00
71974;BME280;59840;52.122;5.404;2024-02-21T06:18:53;101923.44;;;8.92;100.00
71974;BME280;59840;52.122;5.404;2024-02-21T06:21:20;101914.75;;;8.92;100.00
71974;BME280;59840;52.122;5.404;2024-02-21T06:23:46;101930.53;;;8.92;100.00
71974;BME280;59840;52.122;5.404;2024-02-21T06:26:13;101921.63;;;8.93;100.00
71974;BME280;59840;52.122;5.404;2024-02-21T06:28:39;101926.88;;;8.93;100.00
71974;BME280;59840;52.122;5.404;2024-02-21T06:31:06;101929.53;;;8.93;100.00
71974;BME280;59840;52.122;5.404;2024-02-21T06:33:33;101935.19;;;8.90;100.00
71974;BME280;59840;52.122;5.404;2024-02-21T06:35:59;101935.19;;;8.90;100.00
71974;BME280;59840;52.122;5.404;2024-02-21T06:38:26;101940.88;;;8.87;100.00
71974;BME280;59840;52.122;5.404;2024-02-21T06:40:52;101930.75;;;8.84;100.00
71974;BME280;59840;52.122;5.404;2024-02-21T06:43:20;101930.53;;;8.85;100.00
71974;BME280;59840;52.122;5.404;2024-02-21T06:45:47;101937.63;;;8.85;100.00
71974;BME280;59840;52.122;5.404;2024-02-21T06:48:17;101931.97;;;8.81;100.00
71974;BME280;59840;52.122;5.404;2024-02-21T06:50:45;101924.06;;;8.81;100.00
71974;BME280;59840;52.122;5.404;2024-02-21T06:53:12;101920.63;;;8.81;100.00
71974;BME280;59840;52.122;5.404;2024-02-21T06:55:38;101917.19;;;8.80;100.00
71974;BME280;59840;52.122;5.404;2024-02-21T06:58:06;101921.44;;;8.81;100.00
71974;BME280;59840;52.122;5.404;2024-02-21T07:00:35;101922.66;;;8.79;100.00
71974;BME280;59840;52.122;5.404;2024-02-21T07:03:01;101913.94;;;8.78;100.00
71974;BME280;59840;52.122;5.404;2024-02-21T07:05:28;101907.47;;;8.81;100.00
71974;BME280;59840;52.122;5.404;2024-02-21T07:07:55;101907.69;;;8.79;100.00
71974;BME280;59840;52.122;5.404;2024-02-21T07:10:22;101905.44;;;8.76;100.00
71974;BME280;59840;52.122;5.404;2024-02-21T07:12:49;101911.31;;;8.78;100.00
71974;BME280;59840;52.122;5.404;2024-02-21T07:15:15;101915.56;;;8.79;100.00
71974;BME280;59840;52.122;5.404;2024-02-21T07:17:42;101903.22;;;8.80;100.00
71974;BME280;59840;52.122;5.404;2024-02-21T07:20:09;101890.06;;;8.80;100.00
71974;BME280;59840;52.122;5.404;2024-02-21T07:22:36;101891.88;;;8.79;100.00
71974;BME280;59840;52.122;5.404;2024-02-21T07:25:03;101903.22;;;8.80;100.00
71974;BME280;59840;52.122;5.404;2024-02-21T07:27:32;101887.22;;;8.81;100.00
71974;BME280;59840;52.122;5.404;2024-02-21T07:29:59;101888.44;;;8.79;100.00
71974;BME280;59840;52.122;5.404;2024-02-21T07:32:26;101884.19;;;8.78;100.00
71974;BME280;59840;52.122;5.404;2024-02-21T07:34:53;101875.50;;;8.77;100.00
71974;BME280;59840;52.122;5.404;2024-02-21T07:37:19;101875.28;;;8.79;100.00
71974;BME280;59840;52.122;5.404;2024-02-21T07:39:46;101874.28;;;8.80;100.00
71974;BME280;59840;52.122;5.404;2024-02-21T07:42:13;101869.00;;;8.80;100.00
71974;BME280;59840;52.122;5.404;2024-02-21T07:44:39;101865.97;;;8.83;100.00
71974;BME280;59840;52.122;5.404;2024-02-21T07:47:06;101854.44;;;8.84;100.00
71974;BME280;59840;52.122;5.404;2024-02-21T07:49:43;101841.66;;;8.87;100.00
71974;BME280;59840;52.122;5.404;2024-02-21T07:52:11;101840.84;;;8.87;100.00
71974;BME280;59840;52.122;5.404;2024-02-21T07:54:38;101839.63;;;8.89;100.00
71974;BME280;59840;52.122;5.404;2024-02-21T07:57:05;101832.34;;;8.91;100.00
71974;BME280;59840;52.122;5.404;2024-02-21T07:59:36;101832.34;;;8.91;100.00
71974;BME280;59840;52.122;5.404;2024-02-21T08:02:08;101825.25;;;8.92;100.00
71974;BME280;59840;52.122;5.404;2024-02-21T08:04:37;101831.13;;;8.94;100.00
71974;BME280;59840;52.122;5.404;2024-02-21T08:07:07;101827.47;;;8.95;100.00
71974;BME280;59840;52.122;5.404;2024-02-21T08:12:43;101832.69;;;9.01;100.00
71974;BME280;59840;52.122;5.404;2024-02-21T08:15:16;101817.47;;;9.03;100.00
71974;BME280;59840;52.122;5.404;2024-02-21T08:17:44;101831.03;;;9.07;100.00
71974;BME280;59840;52.122;5.404;2024-02-21T08:20:16;101814.22;;;9.08;100.00
71974;BME280;59840;52.122;5.404;2024-02-21T08:22:50;101821.50;;;9.13;100.00
71974;BME280;59840;52.122;5.404;2024-02-21T08:25:33;101810.34;;;9.17;100.00
71974;BME280;59840;52.122;5.404;2024-02-21T08:28:01;101809.91;;;9.20;100.00
71974;BME280;59840;52.122;5.404;2024-02-21T08:34:09;101808.06;;;9.27;100.00
71974;BME280;59840;52.122;5.404;2024-02-21T08:36:37;101790.66;;;9.26;100.00
71974;BME280;59840;52.122;5.404;2024-02-21T08:39:10;101797.75;;;9.26;100.00
71974;BME280;59840;52.122;5.404;2024-02-21T08:41:44;101793.88;;;9.28;100.00
71974;BME280;59840;52.122;5.404;2024-02-21T08:44:30;101795.66;;;9.34;100.00
71974;BME280;59840;52.122;5.404;2024-02-21T08:46:57;101792.00;;;9.35;100.00
71974;BME280;59840;52.122;5.404;2024-02-21T08:49:42;101768.88;;;9.37;100.00
71974;BME280;59840;52.122;5.404;2024-02-21T08:52:18;101763.19;;;9.40;100.00
71974;BME280;59840;52.122;5.404;2024-02-21T08:54:50;101760.94;;;9.44;100.00
71974;BME280;59840;52.122;5.404;2024-02-21T08:57:31;101763.78;;;9.43;100.00
71974;BME280;59840;52.122;5.404;2024-02-21T09:00:06;101765.38;;;9.44;100.00
71974;BME280;59840;52.122;5.404;2024-02-21T09:02:43;101763.94;;;9.48;100.00
71974;BME280;59840;52.122;5.404;2024-02-21T09:05:13;101763.94;;;9.48;100.00
71974;BME280;59840;52.122;5.404;2024-02-21T09:07:42;101759.44;;;9.55;100.00
71974;BME280;59840;52.122;5.404;2024-02-21T09:10:13;101758.41;;;9.56;100.00
71974;BME280;59840;52.122;5.404;2024-02-21T09:12:40;101751.72;;;9.60;100.00
71974;BME280;59840;52.122;5.404;2024-02-21T09:15:07;101750.25;;;9.64;100.00
71974;BME280;59840;52.122;5.404;2024-02-21T09:17:36;101740.91;;;9.68;100.00
71974;BME280;59840;52.122;5.404;2024-02-21T09:20:02;101733.81;;;9.68;100.00
71974;BME280;59840;52.122;5.404;2024-02-21T09:22:33;101740.31;;;9.66;100.00
71974;BME280;59840;52.122;5.404;2024-02-21T09:25:02;101726.31;;;9.65;100.00
71974;BME280;59840;52.122;5.404;2024-02-21T09:27:31;101733.63;;;9.63;100.00
71974;BME280;59840;52.122;5.404;2024-02-21T09:30:00;101729.19;;;9.64;100.00
71974;BME280;59840;52.122;5.404;2024-02-21T09:32:31;101720.25;;;9.65;100.00
71974;BME280;59840;52.122;5.404;2024-02-21T09:34:59;101713.06;;;9.72;100.00
71974;BME280;59840;52.122;5.404;2024-02-21T09:37:29;101708.69;;;9.66;100.00
71974;BME280;59840;52.122;5.404;2024-02-21T09:39:59;101701.59;;;9.66;100.00
71974;BME280;59840;52.122;5.404;2024-02-21T09:42:36;101693.47;;;9.68;100.00
71974;BME280;59840;52.122;5.404;2024-02-21T09:45:09;101693.47;;;9.68;100.00
71974;BME280;59840;52.122;5.404;2024-02-21T09:47:52;101684.53;;;9.69;100.00
71974;BME280;59840;52.122;5.404;2024-02-21T09:50:26;101687.31;;;9.74;100.00
71974;BME280;59840;52.122;5.404;2024-02-21T09:52:56;101678.75;;;9.79;100.00
71974;BME280;59840;52.122;5.404;2024-02-21T09:55:27;101670.41;;;9.82;100.00
71974;BME280;59840;52.122;5.404;2024-02-21T09:57:57;101650.94;;;9.83;100.00
71974;BME280;59840;52.122;5.404;2024-02-21T10:00:27;101644.84;;;9.82;100.00
71974;BME280;59840;52.122;5.404;2024-02-21T10:03:05;101641.56;;;9.87;100.00
71974;BME280;59840;52.122;5.404;2024-02-21T10:05:37;101632.41;;;9.89;100.00
71974;BME280;59840;52.122;5.404;2024-02-21T10:08:06;101630.94;;;9.93;100.00
71974;BME280;59840;52.122;5.404;2024-02-21T10:10:45;101624.88;;;9.93;100.00
71974;BME280;59840;52.122;5.404;2024-02-21T10:13:27;101618.50;;;10.00;100.00
71974;BME280;59840;52.122;5.404;2024-02-21T10:16:03;101613.00;;;10.02;100.00
71974;BME280;59840;52.122;5.404;2024-02-21T10:18:35;101608.97;;;9.99;100.00
71974;BME280;59840;52.122;5.404;2024-02-21T10:21:12;101608.06;;;10.05;100.00
71974;BME280;59840;52.122;5.404;2024-02-21T10:23:46;101609.59;;;10.13;100.00
71974;BME280;59840;52.122;5.404;2024-02-21T10:26:17;101605.13;;;10.14;100.00
71974;BME280;59840;52.122;5.404;2024-02-21T10:28:46;101590.47;;;10.18;100.00
71974;BME280;59840;52.122;5.404;2024-02-21T10:31:24;101587.78;;;10.24;100.00
71974;BME280;59840;52.122;5.404;2024-02-21T10:33:56;101560.75;;;10.29;100.00
71974;BME280;59840;52.122;5.404;2024-02-21T10:36:27;101566.03;;;10.29;100.00
71974;BME280;59840;52.122;5.404;2024-02-21T10:38:59;101573.63;;;10.37;100.00
71974;BME280;59840;52.122;5.404;2024-02-21T10:41:26;101564.47;;;10.39;100.00
71974;BME280;59840;52.122;5.404;2024-02-21T10:43:57;101552.06;;;10.40;100.00
71974;BME280;59840;52.122;5.404;2024-02-21T10:46:26;101542.78;;;10.37;100.00
71974;BME280;59840;52.122;5.404;2024-02-21T10:51:47;101537.16;;;10.34;100.00
71974;BME280;59840;52.122;5.404;2024-02-21T10:57:13;101504.56;;;10.40;100.00
71974;BME280;59840;52.122;5.404;2024-02-21T10:59:50;101479.78;;;10.41;100.00
71974;BME280;59840;52.122;5.404;2024-02-21T11:02:17;101483.22;;;10.41;100.00
71974;BME280;59840;52.122;5.404;2024-02-21T11:04:46;101456.03;;;10.41;100.00
71974;BME280;59840;52.122;5.404;2024-02-21T11:07:14;101458.59;;;10.48;100.00
71974;BME280;59840;52.122;5.404;2024-02-21T11:09:50;101455.50;;;10.51;100.00
71974;BME280;59840;52.122;5.404;2024-02-21T11:12:23;101472.72;;;10.53;100.00
71974;BME280;59840;52.122;5.404;2024-02-21T11:17:58;101532.09;;;10.32;100.00
71974;BME280;59840;52.122;5.404;2024-02-21T11:20:49;101524.72;;;10.23;100.00
71974;BME280;59840;52.122;5.404;2024-02-21T11:23:30;101510.66;;;10.11;100.00
71974;BME280;59840;52.122;5.404;2024-02-21T11:26:17;101521.88;;;10.06;100.00
71974;BME280;59840;52.122;5.404;2024-02-21T11:29:05;101506.16;;;9.99;100.00
71974;BME280;59840;52.122;5.404;2024-02-21T11:31:44;101506.16;;;9.99;100.00
71974;BME280;59840;52.122;5.404;2024-02-21T11:34:22;101498.69;;;9.96;100.00
71974;BME280;59840;52.122;5.404;2024-02-21T11:36:55;101501.56;;;9.95;100.00
71974;BME280;59840;52.122;5.404;2024-02-21T11:39:26;101484.34;;;9.92;100.00
71974;BME280;59840;52.122;5.404;2024-02-21T11:42:06;101470.00;;;9.88;100.00
71974;BME280;59840;52.122;5.404;2024-02-21T11:44:40;101460.28;;;9.89;100.00
71974;BME280;59840;52.122;5.404;2024-02-21T11:47:13;101459.09;;;9.85;100.00
71974;BME280;59840;52.122;5.404;2024-02-21T11:49:47;101446.94;;;9.84;100.00
71974;BME280;59840;52.122;5.404;2024-02-21T11:52:23;101438.81;;;9.85;100.00
71974;BME280;59840;52.122;5.404;2024-02-21T11:57:43;101429.00;;;9.92;100.00
71974;BME280;59840;52.122;5.404;2024-02-21T12:04:00;101380.25;;;10.25;100.00
71974;BME280;59840;52.122;5.404;2024-02-21T12:06:32;101373.94;;;10.37;100.00
71974;BME280;59840;52.122;5.404;2024-02-21T12:08:59;101362.00;;;10.47;100.00
71974;BME280;59840;52.122;5.404;2024-02-21T12:11:31;101343.06;;;10.50;100.00
71974;BME280;59840;52.122;5.404;2024-02-21T12:14:03;101338.72;;;10.55;100.00
71974;BME280;59840;52.122;5.404;2024-02-21T12:17:12;101329.41;;;10.64;100.00
71974;BME280;59840;52.122;5.404;2024-02-21T12:19:39;101326.41;;;10.72;100.00
71974;BME280;59840;52.122;5.404;2024-02-21T12:22:17;101333.84;;;10.75;100.00
71974;BME280;59840;52.122;5.404;2024-02-21T12:24:58;101319.03;;;10.86;100.00
71974;BME280;59840;52.122;5.404;2024-02-21T12:27:25;101319.94;;;10.92;100.00
71974;BME280;59840;52.122;5.404;2024-02-21T12:29:53;101304.88;;;10.92;100.00
71974;BME280;59840;52.122;5.404;2024-02-21T12:32:25;101297.63;;;10.99;100.00
71974;BME280;59840;52.122;5.404;2024-02-21T12:34:52;101288.34;;;10.97;100.00
71974;BME280;59840;52.122;5.404;2024-02-21T12:37:22;101272.03;;;11.00;100.00
71974;BME280;59840;52.122;5.404;2024-02-21T12:39:53;101269.63;;;10.98;100.00
71974;BME280;59840;52.122;5.404;2024-02-21T12:42:20;101255.28;;;10.94;100.00
71974;BME280;59840;52.122;5.404;2024-02-21T12:44:47;101251.28;;;10.92;100.00
71974;BME280;59840;52.122;5.404;2024-02-21T12:47:18;101242.78;;;10.90;100.00
71974;BME280;59840;52.122;5.404;2024-02-21T12:49:57;101237.03;;;10.93;100.00
71974;BME280;59840;52.122;5.404;2024-02-21T12:52:29;101232.66;;;10.98;100.00
71974;BME280;59840;52.122;5.404;2024-02-21T12:55:05;101223.38;;;10.96;100.00
71974;BME280;59840;52.122;5.404;2024-02-21T12:57:37;101209.22;;;11.02;100.00
71974;BME280;59840;52.122;5.404;2024-02-21T13:00:11;101197.16;;;11.06;100.00
71974;BME280;59840;52.122;5.404;2024-02-21T13:02:43;101199.28;;;11.09;100.00
71974;BME280;59840;52.122;5.404;2024-02-21T13:05:14;101193.47;;;11.07;100.00
71974;BME280;59840;52.122;5.404;2024-02-21T13:07:43;101177.06;;;11.05;100.00
71974;BME280;59840;52.122;5.404;2024-02-21T13:10:12;101167.31;;;11.05;100.00
71974;BME280;59840;52.122;5.404;2024-02-21T13:12:46;101162.31;;;11.09;100.00
71974;BME280;59840;52.122;5.404;2024-02-21T13:15:13;101158.25;;;11.18;100.00
71974;BME280;59840;52.122;5.404;2024-02-21T13:17:43;101159.38;;;11.22;100.00
71974;BME280;59840;52.122;5.404;2024-02-21T13:20:11;101155.03;;;11.16;100.00